sensor_id;sensor_type;location;lat;lon;timestamp;P1;durP1;ratioP1;P2;durP2;ratioP2
6679;SDS011;3376;42.664;23.346;2023-02-21T00:02:42;13.77;;;7.50;;
6679;SDS011;3376;42.664;23.346;2023-02-21T00:05:26;7.57;;;6.87;;
6679;SDS011;3376;42.664;23.346;2023-02-21T00:08:10;8.73;;;6.53;;
6679;SDS011;3376;42.664;23.346;2023-02-21T00:10:54;6.50;;;6.00;;
6679;SDS011;3376;42.664;23.346;2023-02-21T00:13:39;8.47;;;7.63;;
6679;SDS011;3376;42.664;23.346;2023-02-21T00:16:23;7.10;;;6.43;;
6679;SDS011;3376;42.664;23.346;2023-02-21T00:19:07;9.07;;;6.20;;
6679;SDS011;3376;42.664;23.346;2023-02-21T00:21:53;8.93;;;5.90;;
6679;SDS011;3376;42.664;23.346;2023-02-21T00:24:37;6.07;;;5.53;;
6679;SDS011;3376;42.664;23.346;2023-02-21T00:27:21;6.10;;;5.50;;
6679;SDS011;3376;42.664;23.346;2023-02-21T00:30:09;5.77;;;5.27;;
6679;SDS011;3376;42.664;23.346;2023-02-21T00:32:54;5.57;;;5.17;;
6679;SDS011;3376;42.664;23.346;2023-02-21T00:35:38;7.20;;;5.67;;
6679;SDS011;3376;42.664;23.346;2023-02-21T00:38:22;6.50;;;5.97;;
6679;SDS011;3376;42.664;23.346;2023-02-21T00:41:06;8.63;;;7.17;;
6679;SDS011;3376;42.664;23.346;2023-02-21T00:43:50;6.00;;;5.57;;
6679;SDS011;3376;42.664;23.346;2023-02-21T00:46:36;6.87;;;5.43;;
6679;SDS011;3376;42.664;23.346;2023-02-21T00:49:20;7.57;;;5.93;;
6679;SDS011;3376;42.664;23.346;2023-02-21T00:52:05;5.67;;;5.00;;
6679;SDS011;3376;42.664;23.346;2023-02-21T00:54:49;5.10;;;4.70;;
6679;SDS011;3376;42.664;23.346;2023-02-21T00:57:33;9.70;;;7.60;;
6679;SDS011;3376;42.664;23.346;2023-02-21T01:00:17;5.77;;;5.20;;
6679;SDS011;3376;42.664;23.346;2023-02-21T01:03:04;8.20;;;7.30;;
6679;SDS011;3376;42.664;23.346;2023-02-21T01:05:49;6.73;;;4.23;;
6679;SDS011;3376;42.664;23.346;2023-02-21T01:08:34;5.33;;;4.83;;
6679;SDS011;3376;42.664;23.346;2023-02-21T01:11:19;16.50;;;8.20;;
6679;SDS011;3376;42.664;23.346;2023-02-21T01:14:05;9.17;;;8.23;;
6679;SDS011;3376;42.664;23.346;2023-02-21T01:16:50;8.27;;;5.93;;
6679;SDS011;3376;42.664;23.346;2023-02-21T01:19:36;5.40;;;4.90;;
6679;SDS011;3376;42.664;23.346;2023-02-21T01:22:20;6.43;;;5.97;;
6679;SDS011;3376;42.664;23.346;2023-02-21T01:25:04;6.40;;;5.80;;
6679;SDS011;3376;42.664;23.346;2023-02-21T01:27:49;9.33;;;6.73;;
6679;SDS011;3376;42.664;23.346;2023-02-21T01:30:33;9.23;;;6.13;;
6679;SDS011;3376;42.664;23.346;2023-02-21T01:33:17;7.73;;;6.97;;
6679;SDS011;3376;42.664;23.346;2023-02-21T01:36:04;6.30;;;5.90;;
6679;SDS011;3376;42.664;23.346;2023-02-21T01:38:49;6.23;;;5.73;;
6679;SDS011;3376;42.664;23.346;2023-02-21T01:41:33;4.27;;;4.00;;
6679;SDS011;3376;42.664;23.346;2023-02-21T01:44:27;5.07;;;4.67;;
6679;SDS011;3376;42.664;23.346;2023-02-21T01:47:14;4.33;;;3.93;;
6679;SDS011;3376;42.664;23.346;2023-02-21T01:50:00;5.37;;;4.87;;
6679;SDS011;3376;42.664;23.346;2023-02-21T01:52:48;4.40;;;4.17;;
6679;SDS011;3376;42.664;23.346;2023-02-21T01:55:32;4.27;;;3.97;;
6679;SDS011;3376;42.664;23.346;2023-02-21T01:58:19;4.43;;;4.10;;
6679;SDS011;3376;42.664;23.346;2023-02-21T02:01:05;4.20;;;3.90;;
6679;SDS011;3376;42.664;23.346;2023-02-21T02:03:50;3.50;;;3.30;;
6679;SDS011;3376;42.664;23.346;2023-02-21T02:06:35;4.27;;;3.83;;
6679;SDS011;3376;42.664;23.346;2023-02-21T02:09:20;5.10;;;4.73;;
6679;SDS011;3376;42.664;23.346;2023-02-21T02:12:10;5.10;;;4.80;;
6679;SDS011;3376;42.664;23.346;2023-02-21T02:15:05;5.67;;;5.23;;
6679;SDS011;3376;42.664;23.346;2023-02-21T02:17:45;6.13;;;5.73;;
6679;SDS011;3376;42.664;23.346;2023-02-21T02:20:28;5.87;;;5.37;;
6679;SDS011;3376;42.664;23.346;2023-02-21T02:29:24;5.70;;;5.17;;
6679;SDS011;3376;42.664;23.346;2023-02-21T02:32:25;3.33;;;3.07;;
6679;SDS011;3376;42.664;23.346;2023-02-21T02:35:04;4.37;;;4.07;;
6679;SDS011;3376;42.664;23.346;2023-02-21T02:37:38;5.00;;;4.57;;
6679;SDS011;3376;42.664;23.346;2023-02-21T02:40:18;7.53;;;6.47;;
6679;SDS011;3376;42.664;23.346;2023-02-21T02:42:54;8.17;;;5.97;;
6679;SDS011;3376;42.664;23.346;2023-02-21T02:45:29;9.33;;;5.00;;
6679;SDS011;3376;42.664;23.346;2023-02-21T02:48:02;5.17;;;4.77;;
6679;SDS011;3376;42.664;23.346;2023-02-21T02:50:36;5.63;;;5.23;;
6679;SDS011;3376;42.664;23.346;2023-02-21T02:53:05;6.07;;;5.00;;
6679;SDS011;3376;42.664;23.346;2023-02-21T02:55:34;6.07;;;4.53;;
6679;SDS011;3376;42.664;23.346;2023-02-21T02:58:06;4.57;;;4.37;;
6679;SDS011;3376;42.664;23.346;2023-02-21T03:00:36;4.67;;;4.37;;
6679;SDS011;3376;42.664;23.346;2023-02-21T03:03:11;3.90;;;3.60;;
6679;SDS011;3376;42.664;23.346;2023-02-21T03:06:07;3.57;;;3.37;;
6679;SDS011;3376;42.664;23.346;2023-02-21T03:08:45;3.77;;;3.50;;
6679;SDS011;3376;42.664;23.346;2023-02-21T03:11:19;3.93;;;3.63;;
6679;SDS011;3376;42.664;23.346;2023-02-21T03:13:50;2.50;;;2.40;;
6679;SDS011;3376;42.664;23.346;2023-02-21T03:16:22;3.37;;;2.87;;
6679;SDS011;3376;42.664;23.346;2023-02-21T03:18:53;3.70;;;3.40;;
6679;SDS011;3376;42.664;23.346;2023-02-21T03:21:25;3.77;;;3.47;;
6679;SDS011;3376;42.664;23.346;2023-02-21T03:23:56;3.60;;;3.40;;
6679;SDS011;3376;42.664;23.346;2023-02-21T03:26:26;4.93;;;3.47;;
6679;SDS011;3376;42.664;23.346;2023-02-21T03:28:55;4.03;;;3.20;;
6679;SDS011;3376;42.664;23.346;2023-02-21T03:31:23;5.60;;;3.10;;
6679;SDS011;3376;42.664;23.346;2023-02-21T03:33:56;2.43;;;2.33;;
6679;SDS011;3376;42.664;23.346;2023-02-21T03:36:22;2.50;;;2.40;;
6679;SDS011;3376;42.664;23.346;2023-02-21T03:38:51;2.67;;;2.57;;
6679;SDS011;3376;42.664;23.346;2023-02-21T03:41:17;3.33;;;3.10;;
6679;SDS011;3376;42.664;23.346;2023-02-21T03:43:44;3.40;;;3.20;;
6679;SDS011;3376;42.664;23.346;2023-02-21T03:46:11;3.37;;;2.80;;
6679;SDS011;3376;42.664;23.346;2023-02-21T03:48:38;3.17;;;2.60;;
6679;SDS011;3376;42.664;23.346;2023-02-21T03:51:04;3.33;;;3.07;;
6679;SDS011;3376;42.664;23.346;2023-02-21T03:53:33;2.47;;;2.17;;
6679;SDS011;3376;42.664;23.346;2023-02-21T03:55:59;3.50;;;3.20;;
6679;SDS011;3376;42.664;23.346;2023-02-21T03:58:26;3.33;;;3.03;;
6679;SDS011;3376;42.664;23.346;2023-02-21T04:00:53;3.70;;;2.93;;
6679;SDS011;3376;42.664;23.346;2023-02-21T04:03:19;2.80;;;2.70;;
6679;SDS011;3376;42.664;23.346;2023-02-21T04:05:46;3.43;;;3.13;;
6679;SDS011;3376;42.664;23.346;2023-02-21T04:08:13;2.97;;;2.87;;
6679;SDS011;3376;42.664;23.346;2023-02-21T04:10:41;6.10;;;2.93;;
6679;SDS011;3376;42.664;23.346;2023-02-21T04:13:08;2.73;;;2.60;;
6679;SDS011;3376;42.664;23.346;2023-02-21T04:15:35;3.30;;;3.10;;
6679;SDS011;3376;42.664;23.346;2023-02-21T04:18:02;5.77;;;3.20;;
6679;SDS011;3376;42.664;23.346;2023-02-21T04:20:29;5.47;;;3.43;;
6679;SDS011;3376;42.664;23.346;2023-02-21T04:22:55;3.10;;;2.90;;
6679;SDS011;3376;42.664;23.346;2023-02-21T04:25:22;3.67;;;3.37;;
6679;SDS011;3376;42.664;23.346;2023-02-21T04:27:50;5.40;;;3.37;;
6679;SDS011;3376;42.664;23.346;2023-02-21T04:30:17;3.97;;;3.60;;
6679;SDS011;3376;42.664;23.346;2023-02-21T04:32:44;2.93;;;2.83;;
6679;SDS011;3376;42.664;23.346;2023-02-21T04:35:11;3.80;;;3.03;;
6679;SDS011;3376;42.664;23.346;2023-02-21T04:37:38;3.63;;;3.33;;
6679;SDS011;3376;42.664;23.346;2023-02-21T04:40:05;4.90;;;4.33;;
6679;SDS011;3376;42.664;23.346;2023-02-21T04:42:32;5.47;;;3.70;;
6679;SDS011;3376;42.664;23.346;2023-02-21T04:45:01;3.97;;;3.60;;
6679;SDS011;3376;42.664;23.346;2023-02-21T04:47:27;3.73;;;3.40;;
6679;SDS011;3376;42.664;23.346;2023-02-21T04:49:54;3.67;;;3.47;;
6679;SDS011;3376;42.664;23.346;2023-02-21T04:52:21;4.60;;;4.20;;
6679;SDS011;3376;42.664;23.346;2023-02-21T04:54:48;3.57;;;3.27;;
6679;SDS011;3376;42.664;23.346;2023-02-21T04:57:15;3.70;;;3.40;;
6679;SDS011;3376;42.664;23.346;2023-02-21T04:59:42;6.57;;;4.50;;
6679;SDS011;3376;42.664;23.346;2023-02-21T05:02:10;4.40;;;3.93;;
6679;SDS011;3376;42.664;23.346;2023-02-21T05:04:37;5.13;;;3.80;;
6679;SDS011;3376;42.664;23.346;2023-02-21T05:07:04;3.70;;;3.50;;
6679;SDS011;3376;42.664;23.346;2023-02-21T05:09:31;3.83;;;3.40;;
6679;SDS011;3376;42.664;23.346;2023-02-21T05:11:57;3.90;;;3.70;;
6679;SDS011;3376;42.664;23.346;2023-02-21T05:14:24;4.47;;;4.17;;
6679;SDS011;3376;42.664;23.346;2023-02-21T05:16:51;8.20;;;4.27;;
6679;SDS011;3376;42.664;23.346;2023-02-21T05:19:20;3.93;;;3.63;;
6679;SDS011;3376;42.664;23.346;2023-02-21T05:21:51;4.37;;;3.93;;
6679;SDS011;3376;42.664;23.346;2023-02-21T05:24:19;3.60;;;2.90;;
6679;SDS011;3376;42.664;23.346;2023-02-21T05:26:46;3.20;;;3.00;;
6679;SDS011;3376;42.664;23.346;2023-02-21T05:29:12;4.03;;;3.70;;
6679;SDS011;3376;42.664;23.346;2023-02-21T05:31:39;4.37;;;3.83;;
6679;SDS011;3376;42.664;23.346;2023-02-21T05:34:06;9.17;;;3.50;;
6679;SDS011;3376;42.664;23.346;2023-02-21T05:36:34;7.07;;;3.73;;
6679;SDS011;3376;42.664;23.346;2023-02-21T05:39:01;6.23;;;3.77;;
6679;SDS011;3376;42.664;23.346;2023-02-21T05:41:29;6.50;;;4.03;;
6679;SDS011;3376;42.664;23.346;2023-02-21T05:43:55;4.67;;;4.23;;
6679;SDS011;3376;42.664;23.346;2023-02-21T05:46:23;4.33;;;3.97;;
6679;SDS011;3376;42.664;23.346;2023-02-21T05:48:51;5.60;;;4.20;;
6679;SDS011;3376;42.664;23.346;2023-02-21T05:51:18;13.93;;;4.13;;
6679;SDS011;3376;42.664;23.346;2023-02-21T05:53:47;6.80;;;4.70;;
6679;SDS011;3376;42.664;23.346;2023-02-21T05:56:14;7.50;;;4.00;;
6679;SDS011;3376;42.664;23.346;2023-02-21T05:58:41;4.77;;;4.20;;
6679;SDS011;3376;42.664;23.346;2023-02-21T06:01:08;5.13;;;4.63;;
6679;SDS011;3376;42.664;23.346;2023-02-21T06:03:34;4.53;;;4.20;;
6679;SDS011;3376;42.664;23.346;2023-02-21T06:06:01;6.37;;;3.97;;
6679;SDS011;3376;42.664;23.346;2023-02-21T06:08:28;6.83;;;3.50;;
6679;SDS011;3376;42.664;23.346;2023-02-21T06:10:57;6.77;;;3.93;;
6679;SDS011;3376;42.664;23.346;2023-02-21T06:13:23;4.50;;;4.10;;
6679;SDS011;3376;42.664;23.346;2023-02-21T06:15:50;4.90;;;4.40;;
6679;SDS011;3376;42.664;23.346;2023-02-21T06:18:17;4.73;;;4.30;;
6679;SDS011;3376;42.664;23.346;2023-02-21T06:20:44;6.07;;;3.83;;
6679;SDS011;3376;42.664;23.346;2023-02-21T06:23:10;6.00;;;3.63;;
6679;SDS011;3376;42.664;23.346;2023-02-21T06:25:37;6.73;;;6.23;;
6679;SDS011;3376;42.664;23.346;2023-02-21T06:28:05;4.60;;;4.40;;
6679;SDS011;3376;42.664;23.346;2023-02-21T06:30:32;7.67;;;3.90;;
6679;SDS011;3376;42.664;23.346;2023-02-21T06:32:59;4.50;;;3.80;;
6679;SDS011;3376;42.664;23.346;2023-02-21T06:35:25;4.47;;;3.33;;
6679;SDS011;3376;42.664;23.346;2023-02-21T06:37:52;6.23;;;4.10;;
6679;SDS011;3376;42.664;23.346;2023-02-21T06:40:19;8.07;;;4.47;;
6679;SDS011;3376;42.664;23.346;2023-02-21T06:42:45;11.03;;;4.80;;
6679;SDS011;3376;42.664;23.346;2023-02-21T06:45:13;4.70;;;4.20;;
6679;SDS011;3376;42.664;23.346;2023-02-21T06:47:40;17.97;;;4.67;;
6679;SDS011;3376;42.664;23.346;2023-02-21T06:50:07;6.87;;;4.53;;
6679;SDS011;3376;42.664;23.346;2023-02-21T06:52:34;8.47;;;4.70;;
6679;SDS011;3376;42.664;23.346;2023-02-21T06:55:01;8.13;;;3.93;;
6679;SDS011;3376;42.664;23.346;2023-02-21T06:57:27;7.07;;;3.73;;
6679;SDS011;3376;42.664;23.346;2023-02-21T06:59:54;9.77;;;4.63;;
6679;SDS011;3376;42.664;23.346;2023-02-21T07:02:22;7.10;;;4.33;;
6679;SDS011;3376;42.664;23.346;2023-02-21T07:04:49;7.17;;;4.13;;
6679;SDS011;3376;42.664;23.346;2023-02-21T07:07:16;6.23;;;4.87;;
6679;SDS011;3376;42.664;23.346;2023-02-21T07:09:43;8.43;;;3.93;;
6679;SDS011;3376;42.664;23.346;2023-02-21T07:12:09;5.23;;;4.03;;
6679;SDS011;3376;42.664;23.346;2023-02-21T07:14:37;7.33;;;4.43;;
6679;SDS011;3376;42.664;23.346;2023-02-21T07:17:04;5.00;;;4.33;;
6679;SDS011;3376;42.664;23.346;2023-02-21T07:19:32;9.00;;;5.00;;
6679;SDS011;3376;42.664;23.346;2023-02-21T07:21:59;8.73;;;5.40;;
6679;SDS011;3376;42.664;23.346;2023-02-21T07:24:26;7.23;;;5.00;;
6679;SDS011;3376;42.664;23.346;2023-02-21T07:26:52;12.50;;;5.87;;
6679;SDS011;3376;42.664;23.346;2023-02-21T07:29:20;10.03;;;6.50;;
6679;SDS011;3376;42.664;23.346;2023-02-21T07:31:47;8.20;;;5.60;;
6679;SDS011;3376;42.664;23.346;2023-02-21T07:34:13;8.07;;;4.47;;
6679;SDS011;3376;42.664;23.346;2023-02-21T07:36:42;18.47;;;5.40;;
6679;SDS011;3376;42.664;23.346;2023-02-21T07:39:08;6.53;;;4.90;;
6679;SDS011;3376;42.664;23.346;2023-02-21T07:41:35;6.23;;;5.63;;
6679;SDS011;3376;42.664;23.346;2023-02-21T07:44:02;5.73;;;5.23;;
6679;SDS011;3376;42.664;23.346;2023-02-21T07:46:29;10.37;;;5.67;;
6679;SDS011;3376;42.664;23.346;2023-02-21T07:48:55;9.83;;;5.60;;
6679;SDS011;3376;42.664;23.346;2023-02-21T07:51:25;9.43;;;5.40;;
6679;SDS011;3376;42.664;23.346;2023-02-21T07:53:54;8.53;;;6.03;;
6679;SDS011;3376;42.664;23.346;2023-02-21T07:56:21;7.17;;;6.20;;
6679;SDS011;3376;42.664;23.346;2023-02-21T07:58:48;8.63;;;5.73;;
6679;SDS011;3376;42.664;23.346;2023-02-21T08:01:15;10.17;;;5.73;;
6679;SDS011;3376;42.664;23.346;2023-02-21T08:03:41;9.87;;;5.73;;
6679;SDS011;3376;42.664;23.346;2023-02-21T08:06:08;10.03;;;6.17;;
6679;SDS011;3376;42.664;23.346;2023-02-21T08:08:36;12.93;;;7.07;;
6679;SDS011;3376;42.664;23.346;2023-02-21T08:11:04;11.43;;;7.70;;
6679;SDS011;3376;42.664;23.346;2023-02-21T08:13:31;8.27;;;6.33;;
6679;SDS011;3376;42.664;23.346;2023-02-21T08:15:57;12.13;;;6.90;;
6679;SDS011;3376;42.664;23.346;2023-02-21T08:18:24;8.97;;;6.43;;
6679;SDS011;3376;42.664;23.346;2023-02-21T08:20:51;8.90;;;6.77;;
6679;SDS011;3376;42.664;23.346;2023-02-21T08:23:19;10.33;;;6.80;;
6679;SDS011;3376;42.664;23.346;2023-02-21T08:25:46;7.73;;;5.97;;
6679;SDS011;3376;42.664;23.346;2023-02-21T08:28:15;9.00;;;7.37;;
6679;SDS011;3376;42.664;23.346;2023-02-21T08:30:42;6.77;;;6.10;;
6679;SDS011;3376;42.664;23.346;2023-02-21T08:33:09;9.37;;;7.07;;
6679;SDS011;3376;42.664;23.346;2023-02-21T08:35:36;13.57;;;6.83;;
6679;SDS011;3376;42.664;23.346;2023-02-21T08:38:02;9.67;;;6.60;;
6679;SDS011;3376;42.664;23.346;2023-02-21T08:40:30;7.73;;;6.90;;
6679;SDS011;3376;42.664;23.346;2023-02-21T08:42:57;11.13;;;6.87;;
6679;SDS011;3376;42.664;23.346;2023-02-21T08:45:27;9.37;;;7.07;;
6679;SDS011;3376;42.664;23.346;2023-02-21T08:47:54;11.97;;;6.67;;
6679;SDS011;3376;42.664;23.346;2023-02-21T08:50:22;11.80;;;7.27;;
6679;SDS011;3376;42.664;23.346;2023-02-21T08:52:50;8.43;;;7.00;;
6679;SDS011;3376;42.664;23.346;2023-02-21T08:55:17;9.67;;;7.80;;
6679;SDS011;3376;42.664;23.346;2023-02-21T08:57:46;13.63;;;7.93;;
6679;SDS011;3376;42.664;23.346;2023-02-21T09:00:14;16.93;;;13.33;;
6679;SDS011;3376;42.664;23.346;2023-02-21T09:02:44;19.97;;;13.70;;
6679;SDS011;3376;42.664;23.346;2023-02-21T09:05:12;11.23;;;5.63;;
6679;SDS011;3376;42.664;23.346;2023-02-21T09:07:42;6.67;;;5.47;;
6679;SDS011;3376;42.664;23.346;2023-02-21T09:10:09;15.97;;;8.73;;
6679;SDS011;3376;42.664;23.346;2023-02-21T09:12:37;11.40;;;6.43;;
6679;SDS011;3376;42.664;23.346;2023-02-21T09:15:04;9.30;;;7.57;;
6679;SDS011;3376;42.664;23.346;2023-02-21T09:17:32;9.13;;;7.27;;
6679;SDS011;3376;42.664;23.346;2023-02-21T09:20:00;12.93;;;7.03;;
6679;SDS011;3376;42.664;23.346;2023-02-21T09:22:30;13.10;;;8.47;;
6679;SDS011;3376;42.664;23.346;2023-02-21T09:24:57;24.30;;;12.13;;
6679;SDS011;3376;42.664;23.346;2023-02-21T09:27:24;7.80;;;6.50;;
6679;SDS011;3376;42.664;23.346;2023-02-21T09:30:01;8.37;;;5.73;;
6679;SDS011;3376;42.664;23.346;2023-02-21T09:32:29;9.97;;;6.47;;
6679;SDS011;3376;42.664;23.346;2023-02-21T09:34:56;6.97;;;6.17;;
6679;SDS011;3376;42.664;23.346;2023-02-21T09:37:24;5.80;;;5.07;;
6679;SDS011;3376;42.664;23.346;2023-02-21T09:39:51;11.93;;;5.40;;
6679;SDS011;3376;42.664;23.346;2023-02-21T09:42:18;6.03;;;5.53;;
6679;SDS011;3376;42.664;23.346;2023-02-21T09:44:47;7.23;;;5.10;;
6679;SDS011;3376;42.664;23.346;2023-02-21T09:47:23;5.27;;;4.83;;
6679;SDS011;3376;42.664;23.346;2023-02-21T09:49:56;5.83;;;4.83;;
6679;SDS011;3376;42.664;23.346;2023-02-21T09:52:29;12.23;;;5.67;;
6679;SDS011;3376;42.664;23.346;2023-02-21T09:54:59;9.23;;;5.93;;
6679;SDS011;3376;42.664;23.346;2023-02-21T09:57:32;12.50;;;5.87;;
6679;SDS011;3376;42.664;23.346;2023-02-21T09:59:59;6.43;;;4.53;;
6679;SDS011;3376;42.664;23.346;2023-02-21T10:02:33;6.57;;;4.77;;
6679;SDS011;3376;42.664;23.346;2023-02-21T10:05:07;10.23;;;5.57;;
6679;SDS011;3376;42.664;23.346;2023-02-21T10:07:51;8.30;;;4.93;;
6679;SDS011;3376;42.664;23.346;2023-02-21T10:10:26;11.03;;;9.93;;
6679;SDS011;3376;42.664;23.346;2023-02-21T10:12:57;5.73;;;5.23;;
6679;SDS011;3376;42.664;23.346;2023-02-21T10:15:34;8.27;;;4.50;;
6679;SDS011;3376;42.664;23.346;2023-02-21T10:18:07;11.70;;;8.97;;
6679;SDS011;3376;42.664;23.346;2023-02-21T10:20:46;9.07;;;4.93;;
6679;SDS011;3376;42.664;23.346;2023-02-21T10:23:20;12.53;;;4.10;;
6679;SDS011;3376;42.664;23.346;2023-02-21T10:25:50;6.47;;;4.50;;
6679;SDS011;3376;42.664;23.346;2023-02-21T10:28:21;8.00;;;4.03;;
6679;SDS011;3376;42.664;23.346;2023-02-21T10:30:50;6.37;;;4.73;;
6679;SDS011;3376;42.664;23.346;2023-02-21T10:33:20;4.33;;;3.93;;
6679;SDS011;3376;42.664;23.346;2023-02-21T10:35:47;5.20;;;4.70;;
6679;SDS011;3376;42.664;23.346;2023-02-21T10:38:15;11.07;;;5.83;;
6679;SDS011;3376;42.664;23.346;2023-02-21T10:40:47;6.57;;;5.23;;
6679;SDS011;3376;42.664;23.346;2023-02-21T10:43:18;5.60;;;5.10;;
6679;SDS011;3376;42.664;23.346;2023-02-21T10:45:52;16.67;;;4.80;;
6679;SDS011;3376;42.664;23.346;2023-02-21T10:48:24;6.83;;;6.10;;
6679;SDS011;3376;42.664;23.346;2023-02-21T10:51:04;7.00;;;6.40;;
6679;SDS011;3376;42.664;23.346;2023-02-21T10:53:34;4.87;;;4.57;;
6679;SDS011;3376;42.664;23.346;2023-02-21T10:56:06;10.57;;;4.90;;
6679;SDS011;3376;42.664;23.346;2023-02-21T10:58:35;2.10;;;1.90;;
6679;SDS011;3376;42.664;23.346;2023-02-21T11:01:12;2.80;;;2.60;;
6679;SDS011;3376;42.664;23.346;2023-02-21T11:03:44;2.40;;;1.70;;
6679;SDS011;3376;42.664;23.346;2023-02-21T11:06:20;1.40;;;1.40;;
6679;SDS011;3376;42.664;23.346;2023-02-21T11:08:51;1.80;;;1.70;;
6679;SDS011;3376;42.664;23.346;2023-02-21T11:11:29;1.30;;;1.20;;
6679;SDS011;3376;42.664;23.346;2023-02-21T11:14:18;3.93;;;1.37;;
6679;SDS011;3376;42.664;23.346;2023-02-21T11:17:01;1.43;;;1.37;;
6679;SDS011;3376;42.664;23.346;2023-02-21T11:19:40;1.80;;;1.30;;
6679;SDS011;3376;42.664;23.346;2023-02-21T11:22:11;3.73;;;1.10;;
6679;SDS011;3376;42.664;23.346;2023-02-21T11:27:32;1.07;;;0.97;;
6679;SDS011;3376;42.664;23.346;2023-02-21T11:30:00;1.27;;;1.03;;
6679;SDS011;3376;42.664;23.346;2023-02-21T11:32:30;1.17;;;1.13;;
6679;SDS011;3376;42.664;23.346;2023-02-21T11:35:14;1.43;;;1.17;;
6679;SDS011;3376;42.664;23.346;2023-02-21T11:37:49;1.20;;;1.20;;
6679;SDS011;3376;42.664;23.346;2023-02-21T11:40:24;1.23;;;1.13;;
6679;SDS011;3376;42.664;23.346;2023-02-21T11:46:01;4.23;;;1.30;;
6679;SDS011;3376;42.664;23.346;2023-02-21T11:48:32;1.00;;;1.00;;
6679;SDS011;3376;42.664;23.346;2023-02-21T11:51:04;1.10;;;1.10;;
6679;SDS011;3376;42.664;23.346;2023-02-21T11:53:35;1.80;;;1.70;;
6679;SDS011;3376;42.664;23.346;2023-02-21T11:56:10;1.50;;;1.30;;
6679;SDS011;3376;42.664;23.346;2023-02-21T11:58:47;1.20;;;1.10;;
6679;SDS011;3376;42.664;23.346;2023-02-21T12:01:23;1.20;;;1.13;;
6679;SDS011;3376;42.664;23.346;2023-02-21T12:03:58;3.87;;;1.40;;
6679;SDS011;3376;42.664;23.346;2023-02-21T12:06:36;6.03;;;1.43;;
6679;SDS011;3376;42.664;23.346;2023-02-21T12:09:09;1.53;;;1.40;;
6679;SDS011;3376;42.664;23.346;2023-02-21T12:11:46;2.87;;;2.67;;
6679;SDS011;3376;42.664;23.346;2023-02-21T12:14:24;3.53;;;1.33;;
6679;SDS011;3376;42.664;23.346;2023-02-21T12:17:03;1.77;;;1.67;;
6679;SDS011;3376;42.664;23.346;2023-02-21T12:22:47;2.47;;;2.27;;
6679;SDS011;3376;42.664;23.346;2023-02-21T12:25:26;4.10;;;1.80;;
6679;SDS011;3376;42.664;23.346;2023-02-21T12:28:02;0.97;;;0.93;;
6679;SDS011;3376;42.664;23.346;2023-02-21T12:30:48;1.43;;;1.33;;
6679;SDS011;3376;42.664;23.346;2023-02-21T12:33:40;1.57;;;1.47;;
6679;SDS011;3376;42.664;23.346;2023-02-21T12:36:14;2.27;;;1.67;;
6679;SDS011;3376;42.664;23.346;2023-02-21T12:38:53;3.23;;;1.47;;
6679;SDS011;3376;42.664;23.346;2023-02-21T12:41:41;1.77;;;1.67;;
6679;SDS011;3376;42.664;23.346;2023-02-21T12:44:18;1.33;;;1.30;;
6679;SDS011;3376;42.664;23.346;2023-02-21T12:46:49;2.10;;;1.40;;
6679;SDS011;3376;42.664;23.346;2023-02-21T12:49:21;1.43;;;1.33;;
6679;SDS011;3376;42.664;23.346;2023-02-21T12:51:54;4.13;;;1.20;;
6679;SDS011;3376;42.664;23.346;2023-02-21T12:54:33;3.10;;;1.47;;
6679;SDS011;3376;42.664;23.346;2023-02-21T12:57:07;1.80;;;1.57;;
6679;SDS011;3376;42.664;23.346;2023-02-21T12:59:45;1.40;;;1.30;;
6679;SDS011;3376;42.664;23.346;2023-02-21T13:02:22;2.07;;;1.40;;
6679;SDS011;3376;42.664;23.346;2023-02-21T13:04:56;1.40;;;1.30;;
6679;SDS011;3376;42.664;23.346;2023-02-21T13:07:28;3.47;;;1.27;;
6679;SDS011;3376;42.664;23.346;2023-02-21T13:10:03;2.80;;;1.30;;
6679;SDS011;3376;42.664;23.346;2023-02-21T13:12:39;3.43;;;2.03;;
6679;SDS011;3376;42.664;23.346;2023-02-21T13:15:17;2.33;;;1.30;;
6679;SDS011;3376;42.664;23.346;2023-02-21T13:17:49;1.83;;;1.40;;
6679;SDS011;3376;42.664;23.346;2023-02-21T13:20:21;1.57;;;1.40;;
6679;SDS011;3376;42.664;23.346;2023-02-21T13:29:00;0.90;;;0.90;;
6679;SDS011;3376;42.664;23.346;2023-02-21T13:31:32;2.17;;;1.60;;
6679;SDS011;3376;42.664;23.346;2023-02-21T13:34:02;1.20;;;1.10;;
6679;SDS011;3376;42.664;23.346;2023-02-21T13:36:38;3.13;;;1.50;;
6679;SDS011;3376;42.664;23.346;2023-02-21T13:39:09;1.30;;;1.30;;
6679;SDS011;3376;42.664;23.346;2023-02-21T13:41:39;1.20;;;1.20;;
6679;SDS011;3376;42.664;23.346;2023-02-21T13:44:09;1.40;;;1.20;;
6679;SDS011;3376;42.664;23.346;2023-02-21T14:01:13;1.20;;;1.10;;
6679;SDS011;3376;42.664;23.346;2023-02-21T14:03:44;1.50;;;1.40;;
6679;SDS011;3376;42.664;23.346;2023-02-21T14:06:15;1.90;;;1.70;;
6679;SDS011;3376;42.664;23.346;2023-02-21T14:08:52;1.73;;;1.63;;
6679;SDS011;3376;42.664;23.346;2023-02-21T14:11:23;1.80;;;1.60;;
6679;SDS011;3376;42.664;23.346;2023-02-21T14:13:53;1.80;;;1.70;;
6679;SDS011;3376;42.664;23.346;2023-02-21T14:16:22;1.30;;;1.30;;
6679;SDS011;3376;42.664;23.346;2023-02-21T14:18:54;1.50;;;1.40;;
6679;SDS011;3376;42.664;23.346;2023-02-21T14:21:23;1.20;;;1.20;;
6679;SDS011;3376;42.664;23.346;2023-02-21T14:23:57;1.43;;;1.33;;
6679;SDS011;3376;42.664;23.346;2023-02-21T14:26:37;1.90;;;1.30;;
6679;SDS011;3376;42.664;23.346;2023-02-21T14:29:15;3.50;;;1.47;;
6679;SDS011;3376;42.664;23.346;2023-02-21T14:31:54;4.17;;;1.70;;
6679;SDS011;3376;42.664;23.346;2023-02-21T14:34:26;1.73;;;1.43;;
6679;SDS011;3376;42.664;23.346;2023-02-21T14:36:59;1.83;;;1.73;;
6679;SDS011;3376;42.664;23.346;2023-02-21T14:39:32;3.07;;;1.60;;
6679;SDS011;3376;42.664;23.346;2023-02-21T14:42:05;1.33;;;1.23;;
6679;SDS011;3376;42.664;23.346;2023-02-21T14:44:54;1.60;;;1.60;;
6679;SDS011;3376;42.664;23.346;2023-02-21T14:47:48;1.80;;;1.33;;
6679;SDS011;3376;42.664;23.346;2023-02-21T14:50:29;4.07;;;1.60;;
6679;SDS011;3376;42.664;23.346;2023-02-21T14:53:10;3.70;;;1.80;;
6679;SDS011;3376;42.664;23.346;2023-02-21T14:55:59;1.60;;;1.50;;
6679;SDS011;3376;42.664;23.346;2023-02-21T15:01:40;1.43;;;1.20;;
6679;SDS011;3376;42.664;23.346;2023-02-21T15:04:14;7.20;;;2.07;;
6679;SDS011;3376;42.664;23.346;2023-02-21T15:06:54;2.70;;;1.53;;
6679;SDS011;3376;42.664;23.346;2023-02-21T15:09:29;1.50;;;1.40;;
6679;SDS011;3376;42.664;23.346;2023-02-21T15:11:55;3.00;;;1.57;;
6679;SDS011;3376;42.664;23.346;2023-02-21T15:14:27;2.37;;;1.87;;
6679;SDS011;3376;42.664;23.346;2023-02-21T15:17:09;2.23;;;2.10;;
6679;SDS011;3376;42.664;23.346;2023-02-21T15:19:39;2.30;;;1.50;;
6679;SDS011;3376;42.664;23.346;2023-02-21T15:22:10;2.27;;;1.60;;
6679;SDS011;3376;42.664;23.346;2023-02-21T15:24:41;1.97;;;1.60;;
6679;SDS011;3376;42.664;23.346;2023-02-21T15:27:20;6.63;;;2.00;;
6679;SDS011;3376;42.664;23.346;2023-02-21T15:30:00;2.63;;;2.07;;
6679;SDS011;3376;42.664;23.346;2023-02-21T15:32:29;4.97;;;2.07;;
6679;SDS011;3376;42.664;23.346;2023-02-21T15:34:56;2.93;;;2.23;;
6679;SDS011;3376;42.664;23.346;2023-02-21T15:37:25;3.10;;;1.97;;
6679;SDS011;3376;42.664;23.346;2023-02-21T15:39:55;3.83;;;1.90;;
6679;SDS011;3376;42.664;23.346;2023-02-21T15:42:24;4.03;;;1.73;;
6679;SDS011;3376;42.664;23.346;2023-02-21T15:44:54;2.87;;;2.00;;
6679;SDS011;3376;42.664;23.346;2023-02-21T15:47:25;4.70;;;2.30;;
6679;SDS011;3376;42.664;23.346;2023-02-21T15:49:57;2.33;;;2.17;;
6679;SDS011;3376;42.664;23.346;2023-02-21T15:52:30;7.80;;;2.37;;
6679;SDS011;3376;42.664;23.346;2023-02-21T15:55:11;6.03;;;2.50;;
6679;SDS011;3376;42.664;23.346;2023-02-21T15:57:39;4.20;;;2.37;;
6679;SDS011;3376;42.664;23.346;2023-02-21T16:00:16;3.30;;;2.60;;
6679;SDS011;3376;42.664;23.346;2023-02-21T16:02:48;3.20;;;2.40;;
6679;SDS011;3376;42.664;23.346;2023-02-21T16:05:22;2.33;;;2.13;;
6679;SDS011;3376;42.664;23.346;2023-02-21T16:07:52;6.10;;;2.80;;
6679;SDS011;3376;42.664;23.346;2023-02-21T16:10:19;2.27;;;2.07;;
6679;SDS011;3376;42.664;23.346;2023-02-21T16:12:53;3.87;;;2.53;;
6679;SDS011;3376;42.664;23.346;2023-02-21T16:15:22;2.60;;;2.40;;